Tafton, Pennsylvania
Current Conditions -  °F | °C
As of 6:53 AM on Thursday 29 Jan 2015 (Local Time) from KMPO Reporting Station
Clear Clear  
Wind Chill:   Ceiling: Unl
Heat Index:   Visibility: 10mi
Dew Point: -4°   Wind: 0mph
Humidity: 83%   Direction: NA
Pressure: 30.19"   Gusts: NA
Location:  41.4°N, 75.18°W
Report Text: KMPO 291153Z AUTO 00000KT 10SM CLR M18/M20 A3019 RMK AO2 SLP265 I1000 I6000 T11781200 11117 21189 53003
Loading
Personal Weather Stations






























Interactive Weather Map New forecast layout! Learn more

10-Day Weather Forecast

Advertisements
Track Severe Weather on mobile